sensor_id;sensor_type;location;lat;lon;timestamp;temperature;humidity
68943;DHT22;60852;52.190;4.422;2024-01-25T00:00:20;9.24;79.15
68943;DHT22;60852;52.190;4.422;2024-01-25T00:02:45;9.17;79.68
68943;DHT22;60852;52.190;4.422;2024-01-25T00:05:10;9.11;79.45
68943;DHT22;60852;52.190;4.422;2024-01-25T00:07:47;9.13;79.52
68943;DHT22;60852;52.190;4.422;2024-01-25T00:10:15;9.20;79.52
68943;DHT22;60852;52.190;4.422;2024-01-25T00:12:41;9.24;79.29
68943;DHT22;60852;52.190;4.422;2024-01-25T00:15:08;9.24;79.32
68943;DHT22;60852;52.190;4.422;2024-01-25T00:17:33;9.18;79.40
68943;DHT22;60852;52.190;4.422;2024-01-25T00:19:59;9.08;79.87
68943;DHT22;60852;52.190;4.422;2024-01-25T00:22:24;9.13;79.93
68943;DHT22;60852;52.190;4.422;2024-01-25T00:24:50;9.14;79.81
68943;DHT22;60852;52.190;4.422;2024-01-25T00:27:15;9.13;79.88
68943;DHT22;60852;52.190;4.422;2024-01-25T00:29:41;9.11;79.85
68943;DHT22;60852;52.190;4.422;2024-01-25T00:32:06;9.17;79.59
68943;DHT22;60852;52.190;4.422;2024-01-25T00:34:32;9.20;79.44
68943;DHT22;60852;52.190;4.422;2024-01-25T00:36:58;9.18;79.47
68943;DHT22;60852;52.190;4.422;2024-01-25T00:39:24;9.17;79.39
68943;DHT22;60852;52.190;4.422;2024-01-25T00:41:51;9.15;79.50
68943;DHT22;60852;52.190;4.422;2024-01-25T00:44:17;9.13;79.22
68943;DHT22;60852;52.190;4.422;2024-01-25T00:46:43;9.11;79.41
68943;DHT22;60852;52.190;4.422;2024-01-25T00:49:13;9.14;79.52
68943;DHT22;60852;52.190;4.422;2024-01-25T00:51:46;9.17;79.25
68943;DHT22;60852;52.190;4.422;2024-01-25T00:54:13;9.15;79.29
68943;DHT22;60852;52.190;4.422;2024-01-25T00:56:39;9.17;79.11
68943;DHT22;60852;52.190;4.422;2024-01-25T00:59:05;9.15;79.00
68943;DHT22;60852;52.190;4.422;2024-01-25T01:01:31;9.14;78.96
68943;DHT22;60852;52.190;4.422;2024-01-25T01:03:58;9.10;78.86
68943;DHT22;60852;52.190;4.422;2024-01-25T01:06:24;9.10;79.04
68943;DHT22;60852;52.190;4.422;2024-01-25T01:08:50;9.07;78.81
68943;DHT22;60852;52.190;4.422;2024-01-25T01:11:15;9.07;78.85
68943;DHT22;60852;52.190;4.422;2024-01-25T01:13:41;9.07;78.82
68943;DHT22;60852;52.190;4.422;2024-01-25T01:16:06;9.08;78.94
68943;DHT22;60852;52.190;4.422;2024-01-25T01:18:32;9.07;78.81
68943;DHT22;60852;52.190;4.422;2024-01-25T01:20:57;9.08;78.61
68943;DHT22;60852;52.190;4.422;2024-01-25T01:23:23;9.05;78.86
68943;DHT22;60852;52.190;4.422;2024-01-25T01:25:48;9.01;78.86
68943;DHT22;60852;52.190;4.422;2024-01-25T01:28:14;9.04;78.81
68943;DHT22;60852;52.190;4.422;2024-01-25T01:30:40;9.05;78.72
68943;DHT22;60852;52.190;4.422;2024-01-25T01:33:10;8.99;78.80
68943;DHT22;60852;52.190;4.422;2024-01-25T01:35:36;9.03;78.74
68943;DHT22;60852;52.190;4.422;2024-01-25T01:38:01;8.99;78.75
68943;DHT22;60852;52.190;4.422;2024-01-25T01:40:27;9.01;78.72
68943;DHT22;60852;52.190;4.422;2024-01-25T01:43:01;9.01;78.65
68943;DHT22;60852;52.190;4.422;2024-01-25T01:45:27;9.00;78.64
68943;DHT22;60852;52.190;4.422;2024-01-25T01:47:54;9.05;78.56
68943;DHT22;60852;52.190;4.422;2024-01-25T01:50:20;9.05;78.34
68943;DHT22;60852;52.190;4.422;2024-01-25T01:52:47;9.01;78.28
68943;DHT22;60852;52.190;4.422;2024-01-25T01:55:13;9.01;78.27
68943;DHT22;60852;52.190;4.422;2024-01-25T01:57:39;9.00;78.14
68943;DHT22;60852;52.190;4.422;2024-01-25T02:00:09;9.00;78.13
68943;DHT22;60852;52.190;4.422;2024-01-25T02:02:35;9.03;78.25
68943;DHT22;60852;52.190;4.422;2024-01-25T02:05:01;9.01;78.16
68943;DHT22;60852;52.190;4.422;2024-01-25T02:07:27;8.99;78.34
68943;DHT22;60852;52.190;4.422;2024-01-25T02:09:53;8.96;78.48
68943;DHT22;60852;52.190;4.422;2024-01-25T02:12:19;8.94;78.55
68943;DHT22;60852;52.190;4.422;2024-01-25T02:14:45;8.94;78.80
68943;DHT22;60852;52.190;4.422;2024-01-25T02:17:10;8.94;78.65
68943;DHT22;60852;52.190;4.422;2024-01-25T02:19:36;8.91;78.68
68943;DHT22;60852;52.190;4.422;2024-01-25T02:22:04;8.88;78.86
68943;DHT22;60852;52.190;4.422;2024-01-25T02:24:30;8.85;78.85
68943;DHT22;60852;52.190;4.422;2024-01-25T02:26:55;8.84;78.69
68943;DHT22;60852;52.190;4.422;2024-01-25T02:29:21;8.80;79.04
68943;DHT22;60852;52.190;4.422;2024-01-25T02:31:46;8.79;79.27
68943;DHT22;60852;52.190;4.422;2024-01-25T02:34:12;8.83;79.04
68943;DHT22;60852;52.190;4.422;2024-01-25T02:36:37;8.80;79.04
68943;DHT22;60852;52.190;4.422;2024-01-25T02:39:03;8.70;79.11
68943;DHT22;60852;52.190;4.422;2024-01-25T02:41:30;8.76;79.24
68943;DHT22;60852;52.190;4.422;2024-01-25T02:43:56;8.73;79.29
68943;DHT22;60852;52.190;4.422;2024-01-25T02:46:21;8.62;79.41
68943;DHT22;60852;52.190;4.422;2024-01-25T02:48:47;8.63;79.65
68943;DHT22;60852;52.190;4.422;2024-01-25T02:51:12;8.60;79.72
68943;DHT22;60852;52.190;4.422;2024-01-25T02:53:38;8.63;79.73
68943;DHT22;60852;52.190;4.422;2024-01-25T02:56:04;8.60;79.44
68943;DHT22;60852;52.190;4.422;2024-01-25T02:58:29;8.49;79.97
68943;DHT22;60852;52.190;4.422;2024-01-25T03:00:55;8.49;80.14
68943;DHT22;60852;52.190;4.422;2024-01-25T03:03:20;8.50;80.34
68943;DHT22;60852;52.190;4.422;2024-01-25T03:05:49;8.52;80.11
68943;DHT22;60852;52.190;4.422;2024-01-25T03:08:15;8.53;79.60
68943;DHT22;60852;52.190;4.422;2024-01-25T03:10:40;8.53;80.09
68943;DHT22;60852;52.190;4.422;2024-01-25T03:13:05;8.53;80.20
68943;DHT22;60852;52.190;4.422;2024-01-25T03:15:31;8.56;79.98
68943;DHT22;60852;52.190;4.422;2024-01-25T03:17:57;8.59;80.00
68943;DHT22;60852;52.190;4.422;2024-01-25T03:20:23;8.62;79.78
68943;DHT22;60852;52.190;4.422;2024-01-25T03:22:48;8.60;79.70
68943;DHT22;60852;52.190;4.422;2024-01-25T03:25:14;8.57;79.77
68943;DHT22;60852;52.190;4.422;2024-01-25T03:27:39;8.50;79.81
68943;DHT22;60852;52.190;4.422;2024-01-25T03:30:05;8.50;79.90
68943;DHT22;60852;52.190;4.422;2024-01-25T03:32:33;8.53;79.99
68943;DHT22;60852;52.190;4.422;2024-01-25T03:35:00;8.53;79.89
68943;DHT22;60852;52.190;4.422;2024-01-25T03:37:25;8.53;79.86
68943;DHT22;60852;52.190;4.422;2024-01-25T03:39:51;8.55;79.82
68943;DHT22;60852;52.190;4.422;2024-01-25T03:42:16;8.49;79.62
68943;DHT22;60852;52.190;4.422;2024-01-25T03:44:42;8.41;79.51
68943;DHT22;60852;52.190;4.422;2024-01-25T03:47:10;8.36;79.78
68943;DHT22;60852;52.190;4.422;2024-01-25T03:49:35;8.32;79.85
68943;DHT22;60852;52.190;4.422;2024-01-25T03:52:01;8.35;79.81
68943;DHT22;60852;52.190;4.422;2024-01-25T03:54:26;8.35;79.87
68943;DHT22;60852;52.190;4.422;2024-01-25T03:56:51;8.22;80.10
68943;DHT22;60852;52.190;4.422;2024-01-25T03:59:17;8.20;80.40
68943;DHT22;60852;52.190;4.422;2024-01-25T04:01:44;8.25;80.50
68943;DHT22;60852;52.190;4.422;2024-01-25T04:04:09;8.21;80.29
68943;DHT22;60852;52.190;4.422;2024-01-25T04:06:41;8.18;80.54
68943;DHT22;60852;52.190;4.422;2024-01-25T04:09:07;8.18;80.60
68943;DHT22;60852;52.190;4.422;2024-01-25T04:11:33;8.18;80.65
68943;DHT22;60852;52.190;4.422;2024-01-25T04:13:58;8.14;80.45
68943;DHT22;60852;52.190;4.422;2024-01-25T04:16:24;8.14;80.74
68943;DHT22;60852;52.190;4.422;2024-01-25T04:18:49;8.09;80.64
68943;DHT22;60852;52.190;4.422;2024-01-25T04:21:15;8.02;80.49
68943;DHT22;60852;52.190;4.422;2024-01-25T04:23:40;8.04;80.39
68943;DHT22;60852;52.190;4.422;2024-01-25T04:26:06;8.02;80.47
68943;DHT22;60852;52.190;4.422;2024-01-25T04:28:31;7.95;80.52
68943;DHT22;60852;52.190;4.422;2024-01-25T04:30:56;7.95;80.75
68943;DHT22;60852;52.190;4.422;2024-01-25T04:33:22;7.93;81.04
68943;DHT22;60852;52.190;4.422;2024-01-25T04:35:47;7.93;81.17
68943;DHT22;60852;52.190;4.422;2024-01-25T04:38:13;7.91;81.33
68943;DHT22;60852;52.190;4.422;2024-01-25T04:40:38;7.88;81.49
68943;DHT22;60852;52.190;4.422;2024-01-25T04:43:03;7.94;81.60
68943;DHT22;60852;52.190;4.422;2024-01-25T04:45:29;7.94;81.71
68943;DHT22;60852;52.190;4.422;2024-01-25T04:47:54;7.91;81.86
68943;DHT22;60852;52.190;4.422;2024-01-25T04:50:20;7.93;82.02
68943;DHT22;60852;52.190;4.422;2024-01-25T04:52:45;7.95;81.98
68943;DHT22;60852;52.190;4.422;2024-01-25T04:55:11;7.94;81.92
68943;DHT22;60852;52.190;4.422;2024-01-25T04:57:36;7.98;82.04
68943;DHT22;60852;52.190;4.422;2024-01-25T05:00:02;7.95;81.96
68943;DHT22;60852;52.190;4.422;2024-01-25T05:02:28;7.88;81.30
68943;DHT22;60852;52.190;4.422;2024-01-25T05:04:53;7.77;81.63
68943;DHT22;60852;52.190;4.422;2024-01-25T05:07:18;7.71;81.91
68943;DHT22;60852;52.190;4.422;2024-01-25T05:09:44;7.69;81.91
68943;DHT22;60852;52.190;4.422;2024-01-25T05:12:10;7.69;81.69
68943;DHT22;60852;52.190;4.422;2024-01-25T05:14:35;7.64;81.81
68943;DHT22;60852;52.190;4.422;2024-01-25T05:17:00;7.62;82.09
68943;DHT22;60852;52.190;4.422;2024-01-25T05:19:26;7.64;82.05
68943;DHT22;60852;52.190;4.422;2024-01-25T05:21:51;7.62;81.96
68943;DHT22;60852;52.190;4.422;2024-01-25T05:24:17;7.62;82.18
68943;DHT22;60852;52.190;4.422;2024-01-25T05:26:42;7.63;82.51
68943;DHT22;60852;52.190;4.422;2024-01-25T05:29:08;7.66;82.77
68943;DHT22;60852;52.190;4.422;2024-01-25T05:31:33;7.70;82.85
68943;DHT22;60852;52.190;4.422;2024-01-25T05:33:59;7.67;83.08
68943;DHT22;60852;52.190;4.422;2024-01-25T05:36:24;7.66;83.22
68943;DHT22;60852;52.190;4.422;2024-01-25T05:38:50;7.70;83.24
68943;DHT22;60852;52.190;4.422;2024-01-25T05:41:15;7.69;83.09
68943;DHT22;60852;52.190;4.422;2024-01-25T05:43:40;7.67;83.08
68943;DHT22;60852;52.190;4.422;2024-01-25T05:46:06;7.73;83.28
68943;DHT22;60852;52.190;4.422;2024-01-25T05:48:31;7.74;83.34
68943;DHT22;60852;52.190;4.422;2024-01-25T05:50:57;7.73;83.21
68943;DHT22;60852;52.190;4.422;2024-01-25T05:53:22;7.73;83.34
68943;DHT22;60852;52.190;4.422;2024-01-25T05:55:48;7.71;83.37
68943;DHT22;60852;52.190;4.422;2024-01-25T05:58:13;7.71;83.27
68943;DHT22;60852;52.190;4.422;2024-01-25T06:00:39;7.70;83.32
68943;DHT22;60852;52.190;4.422;2024-01-25T06:03:04;7.70;83.33
68943;DHT22;60852;52.190;4.422;2024-01-25T06:05:30;7.66;83.23
68943;DHT22;60852;52.190;4.422;2024-01-25T06:07:55;7.70;83.34
68943;DHT22;60852;52.190;4.422;2024-01-25T06:10:21;7.66;83.05
68943;DHT22;60852;52.190;4.422;2024-01-25T06:12:46;7.69;83.20
68943;DHT22;60852;52.190;4.422;2024-01-25T06:15:12;7.67;83.37
68943;DHT22;60852;52.190;4.422;2024-01-25T06:17:37;7.67;83.50
68943;DHT22;60852;52.190;4.422;2024-01-25T06:20:03;7.66;83.66
68943;DHT22;60852;52.190;4.422;2024-01-25T06:22:29;7.69;83.68
68943;DHT22;60852;52.190;4.422;2024-01-25T06:24:54;7.69;83.79
68943;DHT22;60852;52.190;4.422;2024-01-25T06:27:20;7.69;83.79
68943;DHT22;60852;52.190;4.422;2024-01-25T06:29:45;7.71;83.95
68943;DHT22;60852;52.190;4.422;2024-01-25T06:32:11;7.73;84.01
68943;DHT22;60852;52.190;4.422;2024-01-25T06:34:36;7.75;83.96
68943;DHT22;60852;52.190;4.422;2024-01-25T06:37:03;7.74;83.89
68943;DHT22;60852;52.190;4.422;2024-01-25T06:39:29;7.77;83.89
68943;DHT22;60852;52.190;4.422;2024-01-25T06:41:54;7.71;83.74
68943;DHT22;60852;52.190;4.422;2024-01-25T06:44:20;7.73;83.62
68943;DHT22;60852;52.190;4.422;2024-01-25T06:46:45;7.74;83.65
68943;DHT22;60852;52.190;4.422;2024-01-25T06:49:11;7.69;83.66
68943;DHT22;60852;52.190;4.422;2024-01-25T06:51:36;7.70;83.69
68943;DHT22;60852;52.190;4.422;2024-01-25T06:54:02;7.67;83.70
68943;DHT22;60852;52.190;4.422;2024-01-25T06:56:27;7.66;83.63
68943;DHT22;60852;52.190;4.422;2024-01-25T06:58:52;7.66;83.60
68943;DHT22;60852;52.190;4.422;2024-01-25T07:01:22;7.60;83.64
68943;DHT22;60852;52.190;4.422;2024-01-25T07:03:48;7.59;83.91
68943;DHT22;60852;52.190;4.422;2024-01-25T07:06:16;7.63;83.93
68943;DHT22;60852;52.190;4.422;2024-01-25T07:08:43;7.66;84.15
68943;DHT22;60852;52.190;4.422;2024-01-25T07:11:08;7.70;84.18
68943;DHT22;60852;52.190;4.422;2024-01-25T07:13:37;7.73;84.21
68943;DHT22;60852;52.190;4.422;2024-01-25T07:16:02;7.74;84.13
68943;DHT22;60852;52.190;4.422;2024-01-25T07:18:28;7.74;84.35
68943;DHT22;60852;52.190;4.422;2024-01-25T07:20:55;7.70;84.40
68943;DHT22;60852;52.190;4.422;2024-01-25T07:23:23;7.71;84.31
68943;DHT22;60852;52.190;4.422;2024-01-25T07:25:48;7.70;84.51
68943;DHT22;60852;52.190;4.422;2024-01-25T07:28:14;7.71;84.49
68943;DHT22;60852;52.190;4.422;2024-01-25T07:30:39;7.73;84.49
68943;DHT22;60852;52.190;4.422;2024-01-25T07:33:05;7.74;84.33
68943;DHT22;60852;52.190;4.422;2024-01-25T07:35:30;7.77;84.38
68943;DHT22;60852;52.190;4.422;2024-01-25T07:37:56;7.74;84.27
68943;DHT22;60852;52.190;4.422;2024-01-25T07:40:21;7.73;84.05
68943;DHT22;60852;52.190;4.422;2024-01-25T07:42:47;7.73;84.14
68943;DHT22;60852;52.190;4.422;2024-01-25T07:45:12;7.74;84.15
68943;DHT22;60852;52.190;4.422;2024-01-25T07:47:41;7.73;84.07
68943;DHT22;60852;52.190;4.422;2024-01-25T07:50:07;7.69;84.04
68943;DHT22;60852;52.190;4.422;2024-01-25T07:52:33;7.73;83.91
68943;DHT22;60852;52.190;4.422;2024-01-25T07:54:58;7.70;83.68
68943;DHT22;60852;52.190;4.422;2024-01-25T07:57:24;7.64;83.77
68943;DHT22;60852;52.190;4.422;2024-01-25T07:59:49;7.66;83.79
68943;DHT22;60852;52.190;4.422;2024-01-25T08:02:15;7.67;83.73
68943;DHT22;60852;52.190;4.422;2024-01-25T08:04:42;7.71;83.92
68943;DHT22;60852;52.190;4.422;2024-01-25T08:07:07;7.80;83.85
68943;DHT22;60852;52.190;4.422;2024-01-25T08:09:33;7.88;83.80
68943;DHT22;60852;52.190;4.422;2024-01-25T08:11:59;7.97;83.47
68943;DHT22;60852;52.190;4.422;2024-01-25T08:14:25;7.98;83.07
68943;DHT22;60852;52.190;4.422;2024-01-25T08:16:50;7.99;82.84
68943;DHT22;60852;52.190;4.422;2024-01-25T08:19:16;7.94;82.55
68943;DHT22;60852;52.190;4.422;2024-01-25T08:21:41;7.90;82.69
68943;DHT22;60852;52.190;4.422;2024-01-25T08:24:07;7.91;82.83
68943;DHT22;60852;52.190;4.422;2024-01-25T08:26:33;7.91;82.75
68943;DHT22;60852;52.190;4.422;2024-01-25T08:28:59;7.90;82.79
68943;DHT22;60852;52.190;4.422;2024-01-25T08:31:24;7.88;82.89
68943;DHT22;60852;52.190;4.422;2024-01-25T08:33:51;7.90;82.81
68943;DHT22;60852;52.190;4.422;2024-01-25T08:36:17;7.91;82.92
68943;DHT22;60852;52.190;4.422;2024-01-25T08:38:44;7.94;82.83
68943;DHT22;60852;52.190;4.422;2024-01-25T08:41:09;7.95;82.84
68943;DHT22;60852;52.190;4.422;2024-01-25T08:43:36;7.98;82.72
68943;DHT22;60852;52.190;4.422;2024-01-25T08:46:02;7.97;82.91
68943;DHT22;60852;52.190;4.422;2024-01-25T08:48:27;7.98;82.95
68943;DHT22;60852;52.190;4.422;2024-01-25T08:50:53;8.06;82.94
68943;DHT22;60852;52.190;4.422;2024-01-25T08:53:20;8.05;83.01
68943;DHT22;60852;52.190;4.422;2024-01-25T08:55:55;8.06;83.03
68943;DHT22;60852;52.190;4.422;2024-01-25T08:58:21;8.08;82.93
68943;DHT22;60852;52.190;4.422;2024-01-25T09:00:46;8.11;82.92
68943;DHT22;60852;52.190;4.422;2024-01-25T09:03:12;8.11;82.85
68943;DHT22;60852;52.190;4.422;2024-01-25T09:05:37;8.12;82.85
68943;DHT22;60852;52.190;4.422;2024-01-25T09:08:07;8.14;82.91
68943;DHT22;60852;52.190;4.422;2024-01-25T09:10:32;8.18;82.80
68943;DHT22;60852;52.190;4.422;2024-01-25T09:12:57;8.32;82.78
68943;DHT22;60852;52.190;4.422;2024-01-25T09:15:23;8.38;82.56
68943;DHT22;60852;52.190;4.422;2024-01-25T09:17:48;8.42;82.44
68943;DHT22;60852;52.190;4.422;2024-01-25T09:20:14;8.45;82.22
68943;DHT22;60852;52.190;4.422;2024-01-25T09:22:39;8.36;82.32
68943;DHT22;60852;52.190;4.422;2024-01-25T09:25:05;8.38;82.29
68943;DHT22;60852;52.190;4.422;2024-01-25T09:27:30;8.42;82.37
68943;DHT22;60852;52.190;4.422;2024-01-25T09:29:56;8.45;82.21
68943;DHT22;60852;52.190;4.422;2024-01-25T09:32:21;8.42;82.13
68943;DHT22;60852;52.190;4.422;2024-01-25T09:34:47;8.46;82.28
68943;DHT22;60852;52.190;4.422;2024-01-25T09:37:13;8.50;82.31
68943;DHT22;60852;52.190;4.422;2024-01-25T09:39:40;8.55;82.12
68943;DHT22;60852;52.190;4.422;2024-01-25T09:42:05;8.52;82.08
68943;DHT22;60852;52.190;4.422;2024-01-25T09:44:31;8.56;82.17
68943;DHT22;60852;52.190;4.422;2024-01-25T09:46:57;8.62;82.19
68943;DHT22;60852;52.190;4.422;2024-01-25T09:49:22;8.66;81.90
68943;DHT22;60852;52.190;4.422;2024-01-25T09:51:51;8.62;81.84
68943;DHT22;60852;52.190;4.422;2024-01-25T09:54:17;8.60;81.89
68943;DHT22;60852;52.190;4.422;2024-01-25T09:56:43;8.56;81.92
68943;DHT22;60852;52.190;4.422;2024-01-25T09:59:09;8.55;82.08
68943;DHT22;60852;52.190;4.422;2024-01-25T10:01:34;8.55;82.17
68943;DHT22;60852;52.190;4.422;2024-01-25T10:04:00;8.59;82.31
68943;DHT22;60852;52.190;4.422;2024-01-25T10:06:26;8.70;82.32
68943;DHT22;60852;52.190;4.422;2024-01-25T10:08:52;8.79;82.21
68943;DHT22;60852;52.190;4.422;2024-01-25T10:11:18;8.83;82.22
68943;DHT22;60852;52.190;4.422;2024-01-25T10:13:45;8.88;82.24
68943;DHT22;60852;52.190;4.422;2024-01-25T10:16:18;9.07;82.13
68943;DHT22;60852;52.190;4.422;2024-01-25T10:18:46;9.20;81.82
68943;DHT22;60852;52.190;4.422;2024-01-25T10:21:14;9.31;81.63
68943;DHT22;60852;52.190;4.422;2024-01-25T10:23:40;9.36;81.20
68943;DHT22;60852;52.190;4.422;2024-01-25T10:26:10;9.32;81.01
68943;DHT22;60852;52.190;4.422;2024-01-25T10:28:36;9.34;81.19
68943;DHT22;60852;52.190;4.422;2024-01-25T10:31:02;9.34;81.04
68943;DHT22;60852;52.190;4.422;2024-01-25T10:33:30;9.38;80.88
68943;DHT22;60852;52.190;4.422;2024-01-25T10:36:01;9.34;80.72
68943;DHT22;60852;52.190;4.422;2024-01-25T10:38:34;9.32;80.76
68943;DHT22;60852;52.190;4.422;2024-01-25T10:41:02;9.30;80.62
68943;DHT22;60852;52.190;4.422;2024-01-25T10:43:29;9.21;80.21
68943;DHT22;60852;52.190;4.422;2024-01-25T10:45:59;9.13;80.48
68943;DHT22;60852;52.190;4.422;2024-01-25T10:48:28;9.18;80.50
68943;DHT22;60852;52.190;4.422;2024-01-25T10:50:57;9.20;80.59
68943;DHT22;60852;52.190;4.422;2024-01-25T10:53:33;9.27;80.67
68943;DHT22;60852;52.190;4.422;2024-01-25T10:56:00;9.35;80.58
68943;DHT22;60852;52.190;4.422;2024-01-25T10:58:33;9.42;80.50
68943;DHT22;60852;52.190;4.422;2024-01-25T11:01:01;9.45;80.31
68943;DHT22;60852;52.190;4.422;2024-01-25T11:03:29;9.51;80.17
68943;DHT22;60852;52.190;4.422;2024-01-25T11:06:09;9.49;80.07
68943;DHT22;60852;52.190;4.422;2024-01-25T11:08:35;9.51;80.12
68943;DHT22;60852;52.190;4.422;2024-01-25T11:11:05;9.51;79.94
68943;DHT22;60852;52.190;4.422;2024-01-25T11:13:32;9.45;79.62
68943;DHT22;60852;52.190;4.422;2024-01-25T11:15:57;9.38;79.89
68943;DHT22;60852;52.190;4.422;2024-01-25T11:18:26;9.28;79.97
68943;DHT22;60852;52.190;4.422;2024-01-25T11:20:51;9.24;80.00
68943;DHT22;60852;52.190;4.422;2024-01-25T11:23:17;9.27;80.02
68943;DHT22;60852;52.190;4.422;2024-01-25T11:25:47;9.25;79.79
68943;DHT22;60852;52.190;4.422;2024-01-25T11:28:14;9.20;80.01
68943;DHT22;60852;52.190;4.422;2024-01-25T11:30:43;9.23;80.03
68943;DHT22;60852;52.190;4.422;2024-01-25T11:33:08;9.24;80.03
68943;DHT22;60852;52.190;4.422;2024-01-25T11:35:35;9.21;79.90
68943;DHT22;60852;52.190;4.422;2024-01-25T11:38:01;9.27;79.98
68943;DHT22;60852;52.190;4.422;2024-01-25T11:40:27;9.28;79.88
68943;DHT22;60852;52.190;4.422;2024-01-25T11:42:54;9.38;79.80
68943;DHT22;60852;52.190;4.422;2024-01-25T11:45:20;9.38;79.62
68943;DHT22;60852;52.190;4.422;2024-01-25T11:47:46;9.51;79.66
68943;DHT22;60852;52.190;4.422;2024-01-25T11:50:13;9.59;79.25
68943;DHT22;60852;52.190;4.422;2024-01-25T11:52:38;9.58;79.06
68943;DHT22;60852;52.190;4.422;2024-01-25T11:55:06;9.61;79.10
68943;DHT22;60852;52.190;4.422;2024-01-25T11:57:35;9.63;79.22
68943;DHT22;60852;52.190;4.422;2024-01-25T12:00:05;9.72;78.76
68943;DHT22;60852;52.190;4.422;2024-01-25T12:02:32;9.79;78.79
68943;DHT22;60852;52.190;4.422;2024-01-25T12:04:58;9.79;78.39
68943;DHT22;60852;52.190;4.422;2024-01-25T12:07:24;9.86;78.51
68943;DHT22;60852;52.190;4.422;2024-01-25T12:10:02;9.99;78.45
68943;DHT22;60852;52.190;4.422;2024-01-25T12:12:28;10.07;77.90
68943;DHT22;60852;52.190;4.422;2024-01-25T12:15:00;10.04;77.48
68943;DHT22;60852;52.190;4.422;2024-01-25T12:17:29;10.06;77.52
68943;DHT22;60852;52.190;4.422;2024-01-25T12:19:56;10.09;77.53
68943;DHT22;60852;52.190;4.422;2024-01-25T12:22:22;10.02;76.94
68943;DHT22;60852;52.190;4.422;2024-01-25T12:24:47;9.94;77.00
68943;DHT22;60852;52.190;4.422;2024-01-25T12:27:15;9.97;76.87
68943;DHT22;60852;52.190;4.422;2024-01-25T12:29:41;9.97;77.05
68943;DHT22;60852;52.190;4.422;2024-01-25T12:32:09;10.04;77.18
68943;DHT22;60852;52.190;4.422;2024-01-25T12:34:34;10.07;77.21
68943;DHT22;60852;52.190;4.422;2024-01-25T12:37:00;10.07;76.89
68943;DHT22;60852;52.190;4.422;2024-01-25T12:39:25;10.04;76.40
68943;DHT22;60852;52.190;4.422;2024-01-25T12:41:51;10.04;76.65
68943;DHT22;60852;52.190;4.422;2024-01-25T12:44:16;10.00;76.64
68943;DHT22;60852;52.190;4.422;2024-01-25T12:46:42;10.03;76.66
68943;DHT22;60852;52.190;4.422;2024-01-25T12:49:07;10.04;76.63
68943;DHT22;60852;52.190;4.422;2024-01-25T12:51:33;10.17;76.69
68943;DHT22;60852;52.190;4.422;2024-01-25T12:53:59;10.25;76.17
68943;DHT22;60852;52.190;4.422;2024-01-25T12:56:24;10.24;75.97
68943;DHT22;60852;52.190;4.422;2024-01-25T12:58:50;10.27;76.13
68943;DHT22;60852;52.190;4.422;2024-01-25T13:01:15;10.30;76.01
68943;DHT22;60852;52.190;4.422;2024-01-25T13:03:41;10.38;76.20
68943;DHT22;60852;52.190;4.422;2024-01-25T13:06:06;10.47;76.08
68943;DHT22;60852;52.190;4.422;2024-01-25T13:08:32;10.45;75.99
68943;DHT22;60852;52.190;4.422;2024-01-25T13:10:57;10.34;76.55
68943;DHT22;60852;52.190;4.422;2024-01-25T13:13:22;10.38;76.87
68943;DHT22;60852;52.190;4.422;2024-01-25T13:15:48;10.40;76.96
68943;DHT22;60852;52.190;4.422;2024-01-25T13:18:13;10.44;77.26
68943;DHT22;60852;52.190;4.422;2024-01-25T13:20:39;10.45;77.32
68943;DHT22;60852;52.190;4.422;2024-01-25T13:23:04;10.45;77.75
68943;DHT22;60852;52.190;4.422;2024-01-25T13:25:30;10.41;78.15
68943;DHT22;60852;52.190;4.422;2024-01-25T13:27:56;10.37;78.47
68943;DHT22;60852;52.190;4.422;2024-01-25T13:30:21;10.42;78.64
68943;DHT22;60852;52.190;4.422;2024-01-25T13:32:47;10.47;78.60
68943;DHT22;60852;52.190;4.422;2024-01-25T13:35:12;10.52;78.70
68943;DHT22;60852;52.190;4.422;2024-01-25T13:37:37;10.65;78.53
68943;DHT22;60852;52.190;4.422;2024-01-25T13:40:04;10.73;78.35
68943;DHT22;60852;52.190;4.422;2024-01-25T13:42:30;10.85;78.18
68943;DHT22;60852;52.190;4.422;2024-01-25T13:44:56;10.95;77.91
68943;DHT22;60852;52.190;4.422;2024-01-25T13:47:21;10.96;77.72
68943;DHT22;60852;52.190;4.422;2024-01-25T13:49:47;10.98;77.54
68943;DHT22;60852;52.190;4.422;2024-01-25T13:52:18;10.99;77.70
68943;DHT22;60852;52.190;4.422;2024-01-25T13:54:47;11.05;77.63
68943;DHT22;60852;52.190;4.422;2024-01-25T13:57:15;11.09;77.65
68943;DHT22;60852;52.190;4.422;2024-01-25T13:59:41;11.09;77.51
68943;DHT22;60852;52.190;4.422;2024-01-25T14:02:06;10.98;77.82
68943;DHT22;60852;52.190;4.422;2024-01-25T14:04:32;10.95;77.93
68943;DHT22;60852;52.190;4.422;2024-01-25T14:06:57;10.92;78.21
68943;DHT22;60852;52.190;4.422;2024-01-25T14:09:23;10.93;78.39
68943;DHT22;60852;52.190;4.422;2024-01-25T14:11:48;10.96;78.35
68943;DHT22;60852;52.190;4.422;2024-01-25T14:14:14;10.92;78.63
68943;DHT22;60852;52.190;4.422;2024-01-25T14:16:39;10.85;78.91
68943;DHT22;60852;52.190;4.422;2024-01-25T14:19:05;10.79;79.07
68943;DHT22;60852;52.190;4.422;2024-01-25T14:21:33;10.76;79.37
68943;DHT22;60852;52.190;4.422;2024-01-25T14:23:59;10.76;79.52
68943;DHT22;60852;52.190;4.422;2024-01-25T14:26:24;10.69;79.73
68943;DHT22;60852;52.190;4.422;2024-01-25T14:28:50;10.64;80.14
68943;DHT22;60852;52.190;4.422;2024-01-25T14:31:15;10.55;80.48
68943;DHT22;60852;52.190;4.422;2024-01-25T14:33:40;10.42;81.39
68943;DHT22;60852;52.190;4.422;2024-01-25T14:36:06;10.34;81.96
68943;DHT22;60852;52.190;4.422;2024-01-25T14:38:32;10.30;82.30
68943;DHT22;60852;52.190;4.422;2024-01-25T14:40:59;10.29;82.38
68943;DHT22;60852;52.190;4.422;2024-01-25T14:43:25;10.29;82.54
68943;DHT22;60852;52.190;4.422;2024-01-25T14:45:50;10.33;82.73
68943;DHT22;60852;52.190;4.422;2024-01-25T14:48:16;10.41;82.65
68943;DHT22;60852;52.190;4.422;2024-01-25T14:50:42;10.42;82.71
68943;DHT22;60852;52.190;4.422;2024-01-25T14:53:08;10.45;82.97
68943;DHT22;60852;52.190;4.422;2024-01-25T14:55:33;10.47;82.87
68943;DHT22;60852;52.190;4.422;2024-01-25T14:57:59;10.45;82.91
68943;DHT22;60852;52.190;4.422;2024-01-25T15:00:24;10.45;83.25
68943;DHT22;60852;52.190;4.422;2024-01-25T15:02:50;10.51;83.10
68943;DHT22;60852;52.190;4.422;2024-01-25T15:05:15;10.50;83.30
68943;DHT22;60852;52.190;4.422;2024-01-25T15:07:41;10.57;83.31
68943;DHT22;60852;52.190;4.422;2024-01-25T15:10:07;10.55;83.40
68943;DHT22;60852;52.190;4.422;2024-01-25T15:12:32;10.58;83.38
68943;DHT22;60852;52.190;4.422;2024-01-25T15:14:58;10.55;83.56
68943;DHT22;60852;52.190;4.422;2024-01-25T15:17:24;10.61;83.76
68943;DHT22;60852;52.190;4.422;2024-01-25T15:19:49;10.64;83.74
68943;DHT22;60852;52.190;4.422;2024-01-25T15:22:15;10.64;83.87
68943;DHT22;60852;52.190;4.422;2024-01-25T15:24:40;10.67;83.92
68943;DHT22;60852;52.190;4.422;2024-01-25T15:27:06;10.67;83.72
68943;DHT22;60852;52.190;4.422;2024-01-25T15:29:31;10.64;84.00
68943;DHT22;60852;52.190;4.422;2024-01-25T15:31:57;10.64;83.82
68943;DHT22;60852;52.190;4.422;2024-01-25T15:34:23;10.60;83.81